sensor_id;sensor_type;location;lat;lon;timestamp;P1;durP1;ratioP1;P2;durP2;ratioP2
18443;SDS011;9350;53.176;8.194;2023-02-01T00:02:09;32.65;;;4.38;;
18443;SDS011;9350;53.176;8.194;2023-02-01T00:04:36;31.45;;;4.75;;
18443;SDS011;9350;53.176;8.194;2023-02-01T00:07:02;29.77;;;4.30;;
18443;SDS011;9350;53.176;8.194;2023-02-01T00:09:30;20.70;;;3.92;;
18443;SDS011;9350;53.176;8.194;2023-02-01T00:11:57;28.80;;;4.57;;
18443;SDS011;9350;53.176;8.194;2023-02-01T00:14:26;25.48;;;4.05;;
18443;SDS011;9350;53.176;8.194;2023-02-01T00:16:53;28.35;;;3.90;;
18443;SDS011;9350;53.176;8.194;2023-02-01T00:19:20;23.88;;;3.42;;
18443;SDS011;9350;53.176;8.194;2023-02-01T00:21:47;19.80;;;3.63;;
18443;SDS011;9350;53.176;8.194;2023-02-01T00:24:14;30.15;;;3.78;;
18443;SDS011;9350;53.176;8.194;2023-02-01T00:26:42;29.73;;;4.30;;
18443;SDS011;9350;53.176;8.194;2023-02-01T00:29:10;16.67;;;3.70;;
18443;SDS011;9350;53.176;8.194;2023-02-01T00:31:38;27.17;;;3.83;;
18443;SDS011;9350;53.176;8.194;2023-02-01T00:34:05;32.75;;;5.18;;
18443;SDS011;9350;53.176;8.194;2023-02-01T00:36:33;22.42;;;3.83;;
18443;SDS011;9350;53.176;8.194;2023-02-01T00:39:00;23.02;;;3.10;;
18443;SDS011;9350;53.176;8.194;2023-02-01T00:41:27;25.63;;;4.75;;
18443;SDS011;9350;53.176;8.194;2023-02-01T00:43:55;22.75;;;3.72;;
18443;SDS011;9350;53.176;8.194;2023-02-01T00:46:21;25.95;;;4.07;;
18443;SDS011;9350;53.176;8.194;2023-02-01T00:48:49;26.15;;;3.85;;
18443;SDS011;9350;53.176;8.194;2023-02-01T00:51:17;18.73;;;4.07;;
18443;SDS011;9350;53.176;8.194;2023-02-01T00:53:46;26.08;;;4.38;;
18443;SDS011;9350;53.176;8.194;2023-02-01T00:56:12;21.70;;;3.40;;
18443;SDS011;9350;53.176;8.194;2023-02-01T00:58:39;26.63;;;4.10;;
18443;SDS011;9350;53.176;8.194;2023-02-01T01:01:08;24.20;;;3.65;;
18443;SDS011;9350;53.176;8.194;2023-02-01T01:03:37;28.83;;;4.07;;
18443;SDS011;9350;53.176;8.194;2023-02-01T01:06:06;32.30;;;4.55;;
18443;SDS011;9350;53.176;8.194;2023-02-01T01:08:35;24.40;;;4.38;;
18443;SDS011;9350;53.176;8.194;2023-02-01T01:11:05;23.42;;;3.60;;
18443;SDS011;9350;53.176;8.194;2023-02-01T01:13:33;25.70;;;3.90;;
18443;SDS011;9350;53.176;8.194;2023-02-01T01:16:00;26.25;;;3.88;;
18443;SDS011;9350;53.176;8.194;2023-02-01T01:18:30;28.45;;;3.90;;
18443;SDS011;9350;53.176;8.194;2023-02-01T01:20:58;26.35;;;3.90;;
18443;SDS011;9350;53.176;8.194;2023-02-01T01:23:26;32.13;;;4.15;;
18443;SDS011;9350;53.176;8.194;2023-02-01T01:25:53;18.33;;;3.28;;
18443;SDS011;9350;53.176;8.194;2023-02-01T01:28:20;22.92;;;3.60;;
18443;SDS011;9350;53.176;8.194;2023-02-01T01:30:47;28.30;;;4.13;;
18443;SDS011;9350;53.176;8.194;2023-02-01T01:33:14;25.23;;;4.28;;
18443;SDS011;9350;53.176;8.194;2023-02-01T01:35:42;24.85;;;3.53;;
18443;SDS011;9350;53.176;8.194;2023-02-01T01:38:09;27.92;;;3.65;;
18443;SDS011;9350;53.176;8.194;2023-02-01T01:40:37;29.00;;;3.45;;
18443;SDS011;9350;53.176;8.194;2023-02-01T01:43:05;35.72;;;4.30;;
18443;SDS011;9350;53.176;8.194;2023-02-01T01:45:40;23.48;;;4.13;;
18443;SDS011;9350;53.176;8.194;2023-02-01T01:48:08;23.58;;;4.25;;
18443;SDS011;9350;53.176;8.194;2023-02-01T01:50:40;27.75;;;4.40;;
18443;SDS011;9350;53.176;8.194;2023-02-01T01:53:11;28.73;;;3.55;;
18443;SDS011;9350;53.176;8.194;2023-02-01T01:55:42;19.55;;;3.33;;
18443;SDS011;9350;53.176;8.194;2023-02-01T01:58:12;22.33;;;3.83;;
18443;SDS011;9350;53.176;8.194;2023-02-01T02:00:42;24.60;;;3.92;;
18443;SDS011;9350;53.176;8.194;2023-02-01T02:03:11;25.70;;;4.60;;
18443;SDS011;9350;53.176;8.194;2023-02-01T02:05:43;25.75;;;5.25;;
18443;SDS011;9350;53.176;8.194;2023-02-01T02:08:10;20.98;;;4.30;;
18443;SDS011;9350;53.176;8.194;2023-02-01T02:10:38;14.77;;;3.05;;
18443;SDS011;9350;53.176;8.194;2023-02-01T02:13:22;25.83;;;3.35;;
18443;SDS011;9350;53.176;8.194;2023-02-01T02:15:52;22.35;;;3.53;;
18443;SDS011;9350;53.176;8.194;2023-02-01T02:18:32;24.10;;;4.22;;
18443;SDS011;9350;53.176;8.194;2023-02-01T02:21:19;15.85;;;3.53;;
18443;SDS011;9350;53.176;8.194;2023-02-01T02:27:12;25.33;;;3.63;;
18443;SDS011;9350;53.176;8.194;2023-02-01T02:30:14;30.05;;;3.78;;
18443;SDS011;9350;53.176;8.194;2023-02-01T02:36:00;18.73;;;3.70;;
18443;SDS011;9350;53.176;8.194;2023-02-01T02:38:32;18.58;;;3.08;;
18443;SDS011;9350;53.176;8.194;2023-02-01T02:41:10;18.27;;;3.65;;
18443;SDS011;9350;53.176;8.194;2023-02-01T02:44:04;30.45;;;4.15;;
18443;SDS011;9350;53.176;8.194;2023-02-01T02:46:55;22.45;;;3.67;;
18443;SDS011;9350;53.176;8.194;2023-02-01T02:49:49;21.20;;;3.70;;
18443;SDS011;9350;53.176;8.194;2023-02-01T02:52:34;23.20;;;3.78;;
18443;SDS011;9350;53.176;8.194;2023-02-01T02:55:22;11.85;;;2.72;;
18443;SDS011;9350;53.176;8.194;2023-02-01T02:57:51;23.48;;;3.28;;
18443;SDS011;9350;53.176;8.194;2023-02-01T03:00:36;24.42;;;4.20;;
18443;SDS011;9350;53.176;8.194;2023-02-01T03:03:22;18.27;;;3.53;;
18443;SDS011;9350;53.176;8.194;2023-02-01T03:06:10;25.20;;;4.25;;
18443;SDS011;9350;53.176;8.194;2023-02-01T03:08:39;28.77;;;4.13;;
18443;SDS011;9350;53.176;8.194;2023-02-01T03:11:10;22.00;;;3.25;;
18443;SDS011;9350;53.176;8.194;2023-02-01T03:13:40;13.57;;;3.10;;
18443;SDS011;9350;53.176;8.194;2023-02-01T03:16:11;19.90;;;3.22;;
18443;SDS011;9350;53.176;8.194;2023-02-01T03:18:47;23.73;;;3.92;;
18443;SDS011;9350;53.176;8.194;2023-02-01T03:21:19;14.13;;;3.10;;
18443;SDS011;9350;53.176;8.194;2023-02-01T03:23:50;17.35;;;2.92;;
18443;SDS011;9350;53.176;8.194;2023-02-01T03:26:21;17.02;;;3.20;;
18443;SDS011;9350;53.176;8.194;2023-02-01T03:28:52;20.00;;;3.20;;
18443;SDS011;9350;53.176;8.194;2023-02-01T03:31:23;16.63;;;3.20;;
18443;SDS011;9350;53.176;8.194;2023-02-01T03:33:50;18.83;;;4.10;;
18443;SDS011;9350;53.176;8.194;2023-02-01T03:36:20;24.83;;;3.58;;
18443;SDS011;9350;53.176;8.194;2023-02-01T03:38:52;22.13;;;2.80;;
18443;SDS011;9350;53.176;8.194;2023-02-01T03:41:27;24.67;;;3.33;;
18443;SDS011;9350;53.176;8.194;2023-02-01T03:44:01;15.95;;;3.13;;
18443;SDS011;9350;53.176;8.194;2023-02-01T03:46:35;19.05;;;2.97;;
18443;SDS011;9350;53.176;8.194;2023-02-01T03:49:06;13.70;;;2.75;;
18443;SDS011;9350;53.176;8.194;2023-02-01T03:51:37;16.90;;;3.33;;
18443;SDS011;9350;53.176;8.194;2023-02-01T03:54:06;18.23;;;3.50;;
18443;SDS011;9350;53.176;8.194;2023-02-01T03:56:38;19.67;;;3.38;;
18443;SDS011;9350;53.176;8.194;2023-02-01T03:59:09;17.13;;;3.08;;
18443;SDS011;9350;53.176;8.194;2023-02-01T04:01:36;16.30;;;3.25;;
18443;SDS011;9350;53.176;8.194;2023-02-01T04:04:03;19.42;;;3.50;;
18443;SDS011;9350;53.176;8.194;2023-02-01T04:06:30;25.05;;;3.78;;
18443;SDS011;9350;53.176;8.194;2023-02-01T04:08:58;20.20;;;3.75;;
18443;SDS011;9350;53.176;8.194;2023-02-01T04:11:24;24.05;;;3.67;;
18443;SDS011;9350;53.176;8.194;2023-02-01T04:13:52;28.20;;;3.80;;
18443;SDS011;9350;53.176;8.194;2023-02-01T04:16:19;19.02;;;3.40;;
18443;SDS011;9350;53.176;8.194;2023-02-01T04:18:45;20.08;;;3.28;;
18443;SDS011;9350;53.176;8.194;2023-02-01T04:21:12;22.00;;;3.65;;
18443;SDS011;9350;53.176;8.194;2023-02-01T04:23:39;19.83;;;3.78;;
18443;SDS011;9350;53.176;8.194;2023-02-01T04:26:07;26.38;;;4.43;;
18443;SDS011;9350;53.176;8.194;2023-02-01T04:28:33;20.67;;;3.35;;
18443;SDS011;9350;53.176;8.194;2023-02-01T04:31:00;20.95;;;3.45;;
18443;SDS011;9350;53.176;8.194;2023-02-01T04:33:27;12.77;;;2.83;;
18443;SDS011;9350;53.176;8.194;2023-02-01T04:35:53;24.15;;;3.25;;
18443;SDS011;9350;53.176;8.194;2023-02-01T04:38:20;24.95;;;4.05;;
18443;SDS011;9350;53.176;8.194;2023-02-01T04:40:47;20.05;;;3.15;;
18443;SDS011;9350;53.176;8.194;2023-02-01T04:43:16;21.52;;;3.25;;
18443;SDS011;9350;53.176;8.194;2023-02-01T04:45:46;16.23;;;3.20;;
18443;SDS011;9350;53.176;8.194;2023-02-01T04:48:14;21.52;;;3.97;;
18443;SDS011;9350;53.176;8.194;2023-02-01T04:50:41;21.77;;;3.75;;
18443;SDS011;9350;53.176;8.194;2023-02-01T04:53:10;19.95;;;3.42;;
18443;SDS011;9350;53.176;8.194;2023-02-01T04:55:36;24.52;;;3.72;;
18443;SDS011;9350;53.176;8.194;2023-02-01T04:58:03;20.25;;;3.55;;
18443;SDS011;9350;53.176;8.194;2023-02-01T05:00:31;23.55;;;3.80;;
18443;SDS011;9350;53.176;8.194;2023-02-01T05:02:58;15.70;;;3.00;;
18443;SDS011;9350;53.176;8.194;2023-02-01T05:05:25;18.67;;;2.92;;
18443;SDS011;9350;53.176;8.194;2023-02-01T05:07:53;15.85;;;3.15;;
18443;SDS011;9350;53.176;8.194;2023-02-01T05:10:20;17.92;;;3.17;;
18443;SDS011;9350;53.176;8.194;2023-02-01T05:12:47;17.27;;;2.80;;
18443;SDS011;9350;53.176;8.194;2023-02-01T05:15:32;19.35;;;2.55;;
18443;SDS011;9350;53.176;8.194;2023-02-01T05:17:59;15.18;;;3.25;;
18443;SDS011;9350;53.176;8.194;2023-02-01T05:20:26;12.43;;;2.42;;
18443;SDS011;9350;53.176;8.194;2023-02-01T05:22:52;16.17;;;2.90;;
18443;SDS011;9350;53.176;8.194;2023-02-01T05:25:19;12.73;;;2.78;;
18443;SDS011;9350;53.176;8.194;2023-02-01T05:27:46;18.35;;;3.28;;
18443;SDS011;9350;53.176;8.194;2023-02-01T05:30:13;29.60;;;3.63;;
18443;SDS011;9350;53.176;8.194;2023-02-01T05:32:41;17.50;;;3.20;;
18443;SDS011;9350;53.176;8.194;2023-02-01T05:35:08;14.57;;;2.83;;
18443;SDS011;9350;53.176;8.194;2023-02-01T05:37:35;23.88;;;3.33;;
18443;SDS011;9350;53.176;8.194;2023-02-01T05:40:02;20.88;;;3.50;;
18443;SDS011;9350;53.176;8.194;2023-02-01T05:42:29;21.65;;;3.45;;
18443;SDS011;9350;53.176;8.194;2023-02-01T05:44:55;22.92;;;3.47;;
18443;SDS011;9350;53.176;8.194;2023-02-01T05:47:22;28.33;;;3.60;;
18443;SDS011;9350;53.176;8.194;2023-02-01T05:49:50;26.98;;;3.83;;
18443;SDS011;9350;53.176;8.194;2023-02-01T05:52:17;20.08;;;3.65;;
18443;SDS011;9350;53.176;8.194;2023-02-01T05:54:44;19.40;;;3.67;;
18443;SDS011;9350;53.176;8.194;2023-02-01T05:57:15;29.33;;;3.83;;
18443;SDS011;9350;53.176;8.194;2023-02-01T05:59:40;33.17;;;5.55;;
18443;SDS011;9350;53.176;8.194;2023-02-01T06:02:09;17.98;;;3.35;;
18443;SDS011;9350;53.176;8.194;2023-02-01T06:04:36;30.08;;;3.28;;
18443;SDS011;9350;53.176;8.194;2023-02-01T06:07:04;19.73;;;3.47;;
18443;SDS011;9350;53.176;8.194;2023-02-01T06:09:32;18.15;;;3.30;;
18443;SDS011;9350;53.176;8.194;2023-02-01T06:11:58;14.75;;;3.63;;
18443;SDS011;9350;53.176;8.194;2023-02-01T06:14:26;16.45;;;2.75;;
18443;SDS011;9350;53.176;8.194;2023-02-01T06:16:53;16.92;;;2.53;;
18443;SDS011;9350;53.176;8.194;2023-02-01T06:19:19;15.60;;;2.92;;
18443;SDS011;9350;53.176;8.194;2023-02-01T06:21:46;13.50;;;2.78;;
18443;SDS011;9350;53.176;8.194;2023-02-01T06:24:15;18.15;;;2.83;;
18443;SDS011;9350;53.176;8.194;2023-02-01T06:26:41;17.90;;;2.88;;
18443;SDS011;9350;53.176;8.194;2023-02-01T06:29:09;12.85;;;2.58;;
18443;SDS011;9350;53.176;8.194;2023-02-01T06:31:36;17.67;;;3.00;;
18443;SDS011;9350;53.176;8.194;2023-02-01T06:34:03;14.02;;;2.72;;
18443;SDS011;9350;53.176;8.194;2023-02-01T06:36:29;17.17;;;2.92;;
18443;SDS011;9350;53.176;8.194;2023-02-01T06:38:56;22.42;;;3.08;;
18443;SDS011;9350;53.176;8.194;2023-02-01T06:41:25;26.67;;;4.13;;
18443;SDS011;9350;53.176;8.194;2023-02-01T06:43:52;31.88;;;4.00;;
18443;SDS011;9350;53.176;8.194;2023-02-01T06:46:19;24.38;;;3.72;;
18443;SDS011;9350;53.176;8.194;2023-02-01T06:48:45;32.38;;;3.90;;
18443;SDS011;9350;53.176;8.194;2023-02-01T06:51:17;22.02;;;3.47;;
18443;SDS011;9350;53.176;8.194;2023-02-01T06:53:46;32.83;;;4.82;;
18443;SDS011;9350;53.176;8.194;2023-02-01T06:56:12;17.60;;;3.03;;
18443;SDS011;9350;53.176;8.194;2023-02-01T06:58:40;23.17;;;3.40;;
18443;SDS011;9350;53.176;8.194;2023-02-01T07:01:08;23.25;;;3.75;;
18443;SDS011;9350;53.176;8.194;2023-02-01T07:03:35;34.00;;;3.70;;
18443;SDS011;9350;53.176;8.194;2023-02-01T07:06:03;21.40;;;3.40;;
18443;SDS011;9350;53.176;8.194;2023-02-01T07:08:31;24.50;;;3.42;;
18443;SDS011;9350;53.176;8.194;2023-02-01T07:11:01;23.27;;;3.38;;
18443;SDS011;9350;53.176;8.194;2023-02-01T07:13:28;22.80;;;4.80;;
18443;SDS011;9350;53.176;8.194;2023-02-01T07:15:58;17.23;;;3.28;;
18443;SDS011;9350;53.176;8.194;2023-02-01T07:18:26;24.98;;;3.72;;
18443;SDS011;9350;53.176;8.194;2023-02-01T07:20:53;14.38;;;3.10;;
18443;SDS011;9350;53.176;8.194;2023-02-01T07:23:20;23.15;;;3.35;;
18443;SDS011;9350;53.176;8.194;2023-02-01T07:25:47;20.05;;;3.03;;
18443;SDS011;9350;53.176;8.194;2023-02-01T07:28:14;21.13;;;3.53;;
18443;SDS011;9350;53.176;8.194;2023-02-01T07:30:40;21.75;;;4.10;;
18443;SDS011;9350;53.176;8.194;2023-02-01T07:33:09;23.67;;;3.80;;
18443;SDS011;9350;53.176;8.194;2023-02-01T07:35:35;17.10;;;4.22;;
18443;SDS011;9350;53.176;8.194;2023-02-01T07:38:02;17.13;;;3.13;;
18443;SDS011;9350;53.176;8.194;2023-02-01T07:40:29;17.10;;;3.10;;
18443;SDS011;9350;53.176;8.194;2023-02-01T07:42:55;22.98;;;3.83;;
18443;SDS011;9350;53.176;8.194;2023-02-01T07:45:23;30.00;;;4.15;;
18443;SDS011;9350;53.176;8.194;2023-02-01T07:47:51;22.20;;;3.25;;
18443;SDS011;9350;53.176;8.194;2023-02-01T07:50:20;20.33;;;3.28;;
18443;SDS011;9350;53.176;8.194;2023-02-01T07:52:47;22.25;;;3.53;;
18443;SDS011;9350;53.176;8.194;2023-02-01T07:55:14;16.70;;;3.35;;
18443;SDS011;9350;53.176;8.194;2023-02-01T07:57:40;21.63;;;3.75;;
18443;SDS011;9350;53.176;8.194;2023-02-01T08:00:08;28.33;;;3.90;;
18443;SDS011;9350;53.176;8.194;2023-02-01T08:02:53;24.02;;;3.63;;
18443;SDS011;9350;53.176;8.194;2023-02-01T08:05:21;25.42;;;3.85;;
18443;SDS011;9350;53.176;8.194;2023-02-01T08:07:48;17.60;;;2.97;;
18443;SDS011;9350;53.176;8.194;2023-02-01T08:10:16;20.48;;;2.70;;
18443;SDS011;9350;53.176;8.194;2023-02-01T08:12:43;26.05;;;3.47;;
18443;SDS011;9350;53.176;8.194;2023-02-01T08:15:12;24.85;;;3.55;;
18443;SDS011;9350;53.176;8.194;2023-02-01T08:17:40;25.45;;;3.45;;
18443;SDS011;9350;53.176;8.194;2023-02-01T08:20:12;24.83;;;3.47;;
18443;SDS011;9350;53.176;8.194;2023-02-01T08:22:40;22.40;;;4.68;;
18443;SDS011;9350;53.176;8.194;2023-02-01T08:25:07;23.45;;;3.08;;
18443;SDS011;9350;53.176;8.194;2023-02-01T08:27:35;19.02;;;3.25;;
18443;SDS011;9350;53.176;8.194;2023-02-01T08:30:02;24.77;;;3.25;;
18443;SDS011;9350;53.176;8.194;2023-02-01T08:32:29;22.65;;;3.13;;
18443;SDS011;9350;53.176;8.194;2023-02-01T08:34:56;22.48;;;3.15;;
18443;SDS011;9350;53.176;8.194;2023-02-01T08:37:23;23.23;;;3.78;;
18443;SDS011;9350;53.176;8.194;2023-02-01T08:39:51;20.52;;;3.00;;
18443;SDS011;9350;53.176;8.194;2023-02-01T08:42:18;19.60;;;2.78;;
18443;SDS011;9350;53.176;8.194;2023-02-01T08:45:02;16.80;;;3.17;;
18443;SDS011;9350;53.176;8.194;2023-02-01T08:47:29;24.00;;;3.20;;
18443;SDS011;9350;53.176;8.194;2023-02-01T08:49:56;24.45;;;3.92;;
18443;SDS011;9350;53.176;8.194;2023-02-01T08:52:23;20.58;;;3.53;;
18443;SDS011;9350;53.176;8.194;2023-02-01T08:54:51;13.57;;;2.63;;
18443;SDS011;9350;53.176;8.194;2023-02-01T08:57:18;14.88;;;3.20;;
18443;SDS011;9350;53.176;8.194;2023-02-01T08:59:45;26.63;;;3.25;;
18443;SDS011;9350;53.176;8.194;2023-02-01T09:02:12;20.90;;;3.25;;
18443;SDS011;9350;53.176;8.194;2023-02-01T09:04:40;24.17;;;3.65;;
18443;SDS011;9350;53.176;8.194;2023-02-01T09:07:07;20.13;;;3.40;;
18443;SDS011;9350;53.176;8.194;2023-02-01T09:09:34;23.65;;;3.80;;
18443;SDS011;9350;53.176;8.194;2023-02-01T09:12:03;25.83;;;3.50;;
18443;SDS011;9350;53.176;8.194;2023-02-01T09:14:30;21.20;;;3.60;;
18443;SDS011;9350;53.176;8.194;2023-02-01T09:16:57;27.10;;;3.80;;
18443;SDS011;9350;53.176;8.194;2023-02-01T09:19:24;22.08;;;3.63;;
18443;SDS011;9350;53.176;8.194;2023-02-01T09:21:50;17.80;;;2.65;;
18443;SDS011;9350;53.176;8.194;2023-02-01T09:24:17;18.42;;;3.20;;
18443;SDS011;9350;53.176;8.194;2023-02-01T09:26:45;22.67;;;3.47;;
18443;SDS011;9350;53.176;8.194;2023-02-01T09:29:13;22.80;;;3.42;;
18443;SDS011;9350;53.176;8.194;2023-02-01T09:31:40;23.35;;;3.55;;
18443;SDS011;9350;53.176;8.194;2023-02-01T09:34:07;23.50;;;3.00;;
18443;SDS011;9350;53.176;8.194;2023-02-01T09:36:34;20.33;;;3.17;;
18443;SDS011;9350;53.176;8.194;2023-02-01T09:39:01;25.67;;;3.20;;
18443;SDS011;9350;53.176;8.194;2023-02-01T09:41:40;19.63;;;3.75;;
18443;SDS011;9350;53.176;8.194;2023-02-01T09:44:16;16.92;;;3.10;;
18443;SDS011;9350;53.176;8.194;2023-02-01T09:46:55;14.77;;;2.80;;
18443;SDS011;9350;53.176;8.194;2023-02-01T09:49:23;26.38;;;3.20;;
18443;SDS011;9350;53.176;8.194;2023-02-01T09:51:54;24.92;;;3.75;;
18443;SDS011;9350;53.176;8.194;2023-02-01T09:54:22;19.25;;;3.35;;
18443;SDS011;9350;53.176;8.194;2023-02-01T09:56:52;20.13;;;3.50;;
18443;SDS011;9350;53.176;8.194;2023-02-01T09:59:26;19.10;;;3.38;;
18443;SDS011;9350;53.176;8.194;2023-02-01T10:01:58;25.33;;;3.70;;
18443;SDS011;9350;53.176;8.194;2023-02-01T10:04:26;17.00;;;3.42;;
18443;SDS011;9350;53.176;8.194;2023-02-01T10:06:59;26.70;;;3.33;;
18443;SDS011;9350;53.176;8.194;2023-02-01T10:09:49;15.85;;;3.45;;
18443;SDS011;9350;53.176;8.194;2023-02-01T10:12:40;16.75;;;3.15;;
18443;SDS011;9350;53.176;8.194;2023-02-01T10:15:20;25.63;;;3.53;;
18443;SDS011;9350;53.176;8.194;2023-02-01T10:18:15;17.00;;;2.75;;
18443;SDS011;9350;53.176;8.194;2023-02-01T10:20:56;24.92;;;4.25;;
18443;SDS011;9350;53.176;8.194;2023-02-01T10:23:30;14.60;;;3.22;;
18443;SDS011;9350;53.176;8.194;2023-02-01T10:26:18;17.48;;;3.28;;
18443;SDS011;9350;53.176;8.194;2023-02-01T10:28:48;23.08;;;3.03;;
18443;SDS011;9350;53.176;8.194;2023-02-01T10:31:18;29.13;;;3.97;;
18443;SDS011;9350;53.176;8.194;2023-02-01T10:33:48;23.08;;;2.95;;
18443;SDS011;9350;53.176;8.194;2023-02-01T10:36:19;25.98;;;3.40;;
18443;SDS011;9350;53.176;8.194;2023-02-01T10:38:49;21.08;;;3.67;;
18443;SDS011;9350;53.176;8.194;2023-02-01T10:41:16;21.65;;;3.60;;
18443;SDS011;9350;53.176;8.194;2023-02-01T10:43:47;14.18;;;2.85;;
18443;SDS011;9350;53.176;8.194;2023-02-01T10:46:20;24.13;;;3.47;;
18443;SDS011;9350;53.176;8.194;2023-02-01T10:48:48;17.23;;;2.97;;
18443;SDS011;9350;53.176;8.194;2023-02-01T10:51:19;15.77;;;2.85;;
18443;SDS011;9350;53.176;8.194;2023-02-01T10:53:52;19.50;;;3.75;;
18443;SDS011;9350;53.176;8.194;2023-02-01T10:56:23;19.60;;;3.22;;
18443;SDS011;9350;53.176;8.194;2023-02-01T10:58:50;17.83;;;3.85;;
18443;SDS011;9350;53.176;8.194;2023-02-01T11:01:28;24.55;;;3.25;;
18443;SDS011;9350;53.176;8.194;2023-02-01T11:03:59;12.18;;;3.45;;
18443;SDS011;9350;53.176;8.194;2023-02-01T11:06:27;20.20;;;2.72;;
18443;SDS011;9350;53.176;8.194;2023-02-01T11:08:56;13.68;;;2.72;;
18443;SDS011;9350;53.176;8.194;2023-02-01T11:11:25;20.10;;;3.25;;
18443;SDS011;9350;53.176;8.194;2023-02-01T11:13:56;15.63;;;2.50;;
18443;SDS011;9350;53.176;8.194;2023-02-01T11:16:37;14.95;;;2.33;;
18443;SDS011;9350;53.176;8.194;2023-02-01T11:19:05;12.27;;;2.53;;
18443;SDS011;9350;53.176;8.194;2023-02-01T11:21:32;11.23;;;2.25;;
18443;SDS011;9350;53.176;8.194;2023-02-01T11:24:00;7.97;;;2.05;;
18443;SDS011;9350;53.176;8.194;2023-02-01T11:26:30;8.57;;;2.05;;
18443;SDS011;9350;53.176;8.194;2023-02-01T11:28:59;8.25;;;1.90;;
18443;SDS011;9350;53.176;8.194;2023-02-01T11:31:30;12.23;;;2.20;;
18443;SDS011;9350;53.176;8.194;2023-02-01T11:34:04;14.45;;;2.40;;
18443;SDS011;9350;53.176;8.194;2023-02-01T11:36:33;11.77;;;2.28;;
18443;SDS011;9350;53.176;8.194;2023-02-01T11:39:18;16.15;;;2.67;;
18443;SDS011;9350;53.176;8.194;2023-02-01T11:41:58;15.32;;;2.80;;
18443;SDS011;9350;53.176;8.194;2023-02-01T11:44:32;12.18;;;2.38;;
18443;SDS011;9350;53.176;8.194;2023-02-01T11:49:49;10.05;;;2.45;;
18443;SDS011;9350;53.176;8.194;2023-02-01T11:52:18;7.15;;;2.55;;
18443;SDS011;9350;53.176;8.194;2023-02-01T11:55:20;10.13;;;2.33;;
18443;SDS011;9350;53.176;8.194;2023-02-01T11:58:02;9.52;;;1.90;;
18443;SDS011;9350;53.176;8.194;2023-02-01T12:00:45;5.88;;;1.30;;
18443;SDS011;9350;53.176;8.194;2023-02-01T12:06:37;0.93;;;0.88;;
18443;SDS011;9350;53.176;8.194;2023-02-01T12:09:19;2.17;;;0.70;;
18443;SDS011;9350;53.176;8.194;2023-02-01T12:11:58;1.70;;;0.60;;
18443;SDS011;9350;53.176;8.194;2023-02-01T12:14:36;2.40;;;0.70;;
18443;SDS011;9350;53.176;8.194;2023-02-01T12:20:21;1.98;;;0.85;;
18443;SDS011;9350;53.176;8.194;2023-02-01T12:23:09;0.52;;;0.50;;
18443;SDS011;9350;53.176;8.194;2023-02-01T12:25:54;0.60;;;0.60;;
18443;SDS011;9350;53.176;8.194;2023-02-01T12:28:57;2.75;;;0.60;;
18443;SDS011;9350;53.176;8.194;2023-02-01T12:31:38;1.83;;;0.60;;
18443;SDS011;9350;53.176;8.194;2023-02-01T12:34:29;1.10;;;0.60;;
18443;SDS011;9350;53.176;8.194;2023-02-01T12:37:15;2.67;;;0.80;;
18443;SDS011;9350;53.176;8.194;2023-02-01T12:39:54;1.10;;;0.60;;
18443;SDS011;9350;53.176;8.194;2023-02-01T12:42:29;1.67;;;0.80;;
18443;SDS011;9350;53.176;8.194;2023-02-01T12:44:59;3.10;;;0.88;;
18443;SDS011;9350;53.176;8.194;2023-02-01T12:47:38;2.90;;;0.80;;
18443;SDS011;9350;53.176;8.194;2023-02-01T12:50:12;4.53;;;0.90;;
18443;SDS011;9350;53.176;8.194;2023-02-01T12:52:47;3.10;;;0.70;;
18443;SDS011;9350;53.176;8.194;2023-02-01T12:55:17;2.42;;;0.85;;
18443;SDS011;9350;53.176;8.194;2023-02-01T12:57:49;1.85;;;0.77;;
18443;SDS011;9350;53.176;8.194;2023-02-01T13:00:22;1.33;;;0.68;;
18443;SDS011;9350;53.176;8.194;2023-02-01T13:02:57;4.80;;;0.98;;
18443;SDS011;9350;53.176;8.194;2023-02-01T13:05:27;4.88;;;1.10;;
18443;SDS011;9350;53.176;8.194;2023-02-01T13:08:01;5.65;;;0.82;;
18443;SDS011;9350;53.176;8.194;2023-02-01T13:10:32;4.82;;;0.90;;
18443;SDS011;9350;53.176;8.194;2023-02-01T13:13:03;3.20;;;0.80;;
18443;SDS011;9350;53.176;8.194;2023-02-01T13:15:39;4.30;;;1.15;;
18443;SDS011;9350;53.176;8.194;2023-02-01T13:18:10;5.13;;;1.02;;
18443;SDS011;9350;53.176;8.194;2023-02-01T13:20:45;3.03;;;1.00;;
18443;SDS011;9350;53.176;8.194;2023-02-01T13:23:18;2.53;;;0.90;;
18443;SDS011;9350;53.176;8.194;2023-02-01T13:25:51;4.13;;;1.27;;
18443;SDS011;9350;53.176;8.194;2023-02-01T13:28:21;6.53;;;1.20;;
18443;SDS011;9350;53.176;8.194;2023-02-01T13:30:55;4.85;;;1.10;;
18443;SDS011;9350;53.176;8.194;2023-02-01T13:33:37;6.22;;;1.10;;
18443;SDS011;9350;53.176;8.194;2023-02-01T13:36:23;9.07;;;1.73;;
18443;SDS011;9350;53.176;8.194;2023-02-01T13:39:14;2.58;;;1.20;;
18443;SDS011;9350;53.176;8.194;2023-02-01T13:42:03;5.88;;;1.50;;
18443;SDS011;9350;53.176;8.194;2023-02-01T13:44:39;6.90;;;1.60;;
18443;SDS011;9350;53.176;8.194;2023-02-01T13:47:11;11.00;;;1.67;;
18443;SDS011;9350;53.176;8.194;2023-02-01T13:49:44;12.00;;;2.15;;
18443;SDS011;9350;53.176;8.194;2023-02-01T13:52:21;9.25;;;1.67;;
18443;SDS011;9350;53.176;8.194;2023-02-01T13:55:01;7.60;;;1.67;;
18443;SDS011;9350;53.176;8.194;2023-02-01T13:57:41;12.80;;;2.22;;
18443;SDS011;9350;53.176;8.194;2023-02-01T14:00:22;10.00;;;1.60;;
18443;SDS011;9350;53.176;8.194;2023-02-01T14:08:39;12.73;;;1.73;;
18443;SDS011;9350;53.176;8.194;2023-02-01T14:11:37;13.93;;;2.17;;
18443;SDS011;9350;53.176;8.194;2023-02-01T14:23:28;20.67;;;3.42;;
18443;SDS011;9350;53.176;8.194;2023-02-01T14:28:52;18.20;;;2.70;;
18443;SDS011;9350;53.176;8.194;2023-02-01T14:34:27;22.85;;;3.72;;
18443;SDS011;9350;53.176;8.194;2023-02-01T14:36:58;22.25;;;3.03;;
18443;SDS011;9350;53.176;8.194;2023-02-01T14:39:30;25.35;;;3.53;;
18443;SDS011;9350;53.176;8.194;2023-02-01T14:42:01;22.52;;;3.22;;
18443;SDS011;9350;53.176;8.194;2023-02-01T14:44:32;23.40;;;2.72;;
18443;SDS011;9350;53.176;8.194;2023-02-01T14:47:08;27.80;;;3.45;;
18443;SDS011;9350;53.176;8.194;2023-02-01T14:49:54;23.27;;;3.38;;
18443;SDS011;9350;53.176;8.194;2023-02-01T14:52:28;27.20;;;3.70;;
18443;SDS011;9350;53.176;8.194;2023-02-01T14:55:04;20.77;;;3.30;;
18443;SDS011;9350;53.176;8.194;2023-02-01T14:57:36;22.17;;;3.50;;
18443;SDS011;9350;53.176;8.194;2023-02-01T15:00:08;22.90;;;3.50;;
18443;SDS011;9350;53.176;8.194;2023-02-01T15:02:43;29.83;;;4.15;;
18443;SDS011;9350;53.176;8.194;2023-02-01T15:05:22;24.40;;;3.33;;
18443;SDS011;9350;53.176;8.194;2023-02-01T15:07:51;19.25;;;3.35;;
18443;SDS011;9350;53.176;8.194;2023-02-01T15:10:19;16.08;;;3.08;;
18443;SDS011;9350;53.176;8.194;2023-02-01T15:12:48;11.48;;;2.30;;
18443;SDS011;9350;53.176;8.194;2023-02-01T15:15:16;22.27;;;3.35;;
18443;SDS011;9350;53.176;8.194;2023-02-01T15:17:49;21.67;;;2.95;;
18443;SDS011;9350;53.176;8.194;2023-02-01T15:20:18;22.63;;;3.55;;
18443;SDS011;9350;53.176;8.194;2023-02-01T15:22:57;32.42;;;4.05;;
18443;SDS011;9350;53.176;8.194;2023-02-01T15:25:26;18.27;;;4.07;;
18443;SDS011;9350;53.176;8.194;2023-02-01T15:27:55;23.88;;;3.83;;
18443;SDS011;9350;53.176;8.194;2023-02-01T15:30:23;21.80;;;3.35;;
18443;SDS011;9350;53.176;8.194;2023-02-01T15:32:52;26.40;;;4.15;;
18443;SDS011;9350;53.176;8.194;2023-02-01T15:35:33;19.65;;;3.38;;
18443;SDS011;9350;53.176;8.194;2023-02-01T15:41:07;20.42;;;3.40;;
18443;SDS011;9350;53.176;8.194;2023-02-01T15:43:39;16.75;;;3.22;;
18443;SDS011;9350;53.176;8.194;2023-02-01T15:46:09;24.85;;;4.53;;
18443;SDS011;9350;53.176;8.194;2023-02-01T15:48:40;24.20;;;3.40;;
18443;SDS011;9350;53.176;8.194;2023-02-01T15:51:13;26.35;;;4.50;;
18443;SDS011;9350;53.176;8.194;2023-02-01T15:53:48;12.77;;;2.35;;
18443;SDS011;9350;53.176;8.194;2023-02-01T15:56:21;6.07;;;1.50;;